Time;durP1;ratioP1;P1;durP2;ratioP2;P2;SDS_P1;SDS_P2;PMS_P1;PMS_P2;Temp;Humidity;BMP_temperature;BMP_pressure;BME280_temperature;BME280_humidity;BME280_pressure;Samples;Min_cycle;Max_cycle;Signal;HPM_P1;HPM_P2
2023/12/31 00:02:07;;;;;;;5.27;4.83;;;;;;;6.08;84.44;95763.84;5132556;27;20434;-55
2023/12/31 00:04:36;;;;;;;4.60;2.97;;;;;;;6.07;83.65;95766.72;5132538;27;20481;-55
2023/12/31 00:07:05;;;;;;;4.33;3.90;;;;;;;6.09;83.81;95765.47;5132927;27;20965;-55
2023/12/31 00:09:34;;;;;;;4.23;3.80;;;;;;;6.04;84.25;95767.97;5133101;27;20438;-55
2023/12/31 00:12:04;;;;;;;5.37;4.60;;;;;;;6.02;84.33;95766.63;5133233;27;20437;-56
2023/12/31 00:14:33;;;;;;;7.43;5.10;;;;;;;6.08;84.04;95771.75;5132360;27;20435;-56
2023/12/31 00:17:01;;;;;;;5.23;4.93;;;;;;;6.09;83.85;95770.72;5133013;27;20438;-56
2023/12/31 00:19:30;;;;;;;4.27;3.33;;;;;;;6.10;83.75;95756.53;5133026;27;20430;-55
2023/12/31 00:21:58;;;;;;;4.40;3.97;;;;;;;6.00;84.98;95768.66;5132676;27;20438;-56
2023/12/31 00:24:26;;;;;;;2.60;2.50;;;;;;;5.99;84.96;95762.59;5132922;27;20503;-56
2023/12/31 00:26:55;;;;;;;12.33;5.23;;;;;;;6.04;84.24;95762.72;5132274;27;20434;-56
2023/12/31 00:29:25;;;;;;;1.90;1.90;;;;;;;6.02;84.32;95756.88;5132861;27;20458;-56
2023/12/31 00:31:54;;;;;;;4.57;3.37;;;;;;;5.92;84.93;95761.91;5132128;27;20785;-56
2023/12/31 00:34:23;;;;;;;7.83;5.07;;;;;;;5.99;86.37;95762.59;5132469;27;20435;-56
2023/12/31 00:36:51;;;;;;;2.17;1.90;;;;;;;5.93;84.87;95739.84;5132814;27;20987;-56
2023/12/31 00:39:20;;;;;;;4.97;3.20;;;;;;;6.13;85.30;95755.25;5132321;27;20499;-56
2023/12/31 00:41:48;;;;;;;17.70;3.27;;;;;;;6.19;84.88;95749.09;5131797;27;20547;-56
2023/12/31 00:44:17;;;;;;;2.50;1.70;;;;;;;6.20;84.93;95740.94;5106077;28;20474;-56
2023/12/31 00:46:47;;;;;;;4.10;3.83;;;;;;;6.22;84.97;95738.88;5132101;27;20439;-55
2023/12/31 00:49:16;;;;;;;2.47;2.27;;;;;;;6.13;84.78;95727.13;5132253;28;20438;-56
2023/12/31 00:51:44;;;;;;;3.33;1.97;;;;;;;6.25;84.33;95732.34;5131793;27;20459;-56
2023/12/31 00:54:13;;;;;;;4.47;3.57;;;;;;;6.24;84.39;95741.28;5132422;28;20961;-56
2023/12/31 00:56:42;;;;;;;5.90;1.83;;;;;;;6.28;84.66;95747.69;5132163;28;20435;-56
2023/12/31 00:59:10;;;;;;;3.70;3.40;;;;;;;6.28;84.72;95735.34;5132684;27;20438;-56
2023/12/31 01:01:39;;;;;;;17.03;3.13;;;;;;;6.26;84.66;95740.03;5131625;28;20488;-56
2023/12/31 01:04:09;;;;;;;2.70;2.50;;;;;;;6.24;84.66;95736.84;5132588;28;20469;-56
2023/12/31 01:06:37;;;;;;;5.80;3.23;;;;;;;6.18;85.02;95743.00;5132137;27;20434;-56
2023/12/31 01:09:06;;;;;;;3.80;3.60;;;;;;;6.05;85.42;95738.00;5132015;27;20972;-56
2023/12/31 01:11:35;;;;;;;7.93;4.20;;;;;;;6.02;85.69;95741.06;5132261;28;20514;-56
2023/12/31 01:14:03;;;;;;;4.60;2.60;;;;;;;6.12;83.91;95743.16;5132282;27;20494;-56
2023/12/31 01:16:32;;;;;;;7.10;4.60;;;;;;;6.02;84.29;95735.81;5130595;27;20437;-56
2023/12/31 01:19:01;;;;;;;5.27;2.73;;;;;;;5.81;86.74;95736.38;5131630;28;20798;-56
2023/12/31 01:21:31;;;;;;;6.23;5.73;;;;;;;5.67;87.47;95745.50;5131507;28;20641;-56
2023/12/31 01:23:59;;;;;;;4.33;2.90;;;;;;;5.70;88.47;95742.44;5131692;27;20496;-56
2023/12/31 01:26:28;;;;;;;7.87;3.60;;;;;;;5.71;88.08;95746.66;5131694;28;20511;-56
2023/12/31 01:28:56;;;;;;;11.27;3.07;;;;;;;5.67;86.81;95709.50;5130910;27;20456;-56
2023/12/31 01:31:25;;;;;;;4.97;4.50;;;;;;;5.98;85.95;95739.13;5131655;28;20942;-56
2023/12/31 01:33:54;;;;;;;2.33;2.13;;;;;;;5.89;86.02;95737.91;5131594;28;20434;-56
2023/12/31 01:36:24;;;;;;;3.60;3.40;;;;;;;5.62;88.63;95729.63;5131627;28;20443;-56
2023/12/31 01:38:54;;;;;;;8.43;2.30;;;;;;;5.49;90.05;95733.25;5128729;27;20443;-56
2023/12/31 01:41:23;;;;;;;3.00;2.80;;;;;;;5.37;93.18;95735.09;5131818;27;20466;-56
2023/12/31 01:44:00;;;;;;;3.97;3.70;;;;;;;5.37;93.73;95736.91;5131401;27;20466;-56
2023/12/31 01:46:30;;;;;;;7.60;2.13;;;;;;;5.32;95.70;95732.34;5131462;27;20469;-56
2023/12/31 01:49:00;;;;;;;3.40;3.20;;;;;;;4.70;96.64;95665.38;5131377;28;20435;-56
2023/12/31 01:51:31;;;;;;;13.23;3.30;;;;;;;5.40;95.45;95739.88;5130897;28;20473;-56
2023/12/31 01:54:04;;;;;;;19.20;3.77;;;;;;;5.63;92.91;95739.13;5131280;27;20926;-56
2023/12/31 01:56:34;;;;;;;3.83;3.63;;;;;;;5.77;91.16;95729.97;5131680;28;20470;-56
2023/12/31 01:59:04;;;;;;;3.10;2.90;;;;;;;5.76;90.87;95723.94;5133835;27;20438;-56
2023/12/31 02:01:35;;;;;;;9.13;4.07;;;;;;;5.61;91.19;95720.94;5134880;27;20517;-56
2023/12/31 02:04:06;;;;;;;4.13;3.67;;;;;;;5.62;92.42;95716.47;5135087;27;20488;-56
2023/12/31 02:06:35;;;;;;;2.20;2.10;;;;;;;5.65;90.91;95705.50;5134922;27;20491;-56
2023/12/31 02:09:06;;;;;;;4.90;4.60;;;;;;;5.73;90.33;95703.34;5134862;27;20837;-56
2023/12/31 02:11:35;;;;;;;3.30;2.90;;;;;;;5.93;89.09;95713.53;5135163;27;20499;-56
2023/12/31 02:14:03;;;;;;;5.40;3.70;;;;;;;5.97;89.07;95714.66;5134860;27;20462;-56
2023/12/31 02:16:32;;;;;;;2.77;2.40;;;;;;;5.98;88.11;95718.91;5133934;27;20488;-56
2023/12/31 02:19:01;;;;;;;5.13;2.70;;;;;;;5.88;88.05;95694.19;5134819;27;20438;-56
2023/12/31 02:21:29;;;;;;;4.43;3.17;;;;;;;5.58;90.09;95689.84;5134290;27;20508;-56
2023/12/31 02:23:58;;;;;;;3.57;3.27;;;;;;;5.73;90.42;95713.06;5134796;27;20449;-56
2023/12/31 02:26:30;;;;;;;4.70;3.30;;;;;;;5.45;92.84;95711.09;5135022;27;20426;-56
2023/12/31 02:28:58;;;;;;;12.57;2.90;;;;;;;5.62;93.44;95705.94;5134563;27;20512;-55
2023/12/31 02:31:27;;;;;;;7.53;2.27;;;;;;;5.61;93.15;95718.31;5134668;27;20860;-55
2023/12/31 02:33:55;;;;;;;7.00;5.10;;;;;;;5.44;96.05;95717.38;5134782;27;21094;-55
2023/12/31 02:36:24;;;;;;;2.03;1.93;;;;;;;5.62;93.74;95716.47;5134589;27;20439;-55
2023/12/31 02:38:53;;;;;;;6.30;2.80;;;;;;;5.68;92.88;95708.47;5133798;27;20442;-56
2023/12/31 02:41:21;;;;;;;11.17;4.97;;;;;;;5.80;91.29;95719.00;5134281;27;20438;-55
2023/12/31 02:43:52;;;;;;;5.80;5.30;;;;;;;5.90;89.92;95718.44;5134131;27;20526;-55
2023/12/31 02:46:21;;;;;;;7.87;4.70;;;;;;;5.82;89.96;95706.41;5134428;27;20431;-55
2023/12/31 02:48:50;;;;;;;3.57;3.37;;;;;;;5.78;89.28;95705.28;5133569;27;20435;-56
2023/12/31 02:51:18;;;;;;;13.10;4.90;;;;;;;5.83;89.67;95708.00;5134043;27;20466;-55
2023/12/31 02:53:47;;;;;;;3.13;2.73;;;;;;;5.87;89.12;95700.50;5133726;27;20439;-55
2023/12/31 02:56:16;;;;;;;4.77;4.37;;;;;;;5.92;88.29;95704.03;5134093;27;20446;-57
2023/12/31 02:58:44;;;;;;;8.97;4.00;;;;;;;5.90;88.89;95686.88;5120555;27;20466;-55
2023/12/31 03:01:15;;;;;;;4.10;3.80;;;;;;;5.89;88.77;95693.19;5133968;27;20433;-55
2023/12/31 03:03:44;;;;;;;3.97;3.57;;;;;;;5.69;89.78;95685.63;5133384;27;20446;-55
2023/12/31 03:06:16;;;;;;;4.30;3.17;;;;;;;5.77;89.74;95696.56;5134191;27;20470;-55
2023/12/31 03:08:44;;;;;;;3.33;2.70;;;;;;;5.79;89.38;95696.38;5107299;27;20441;-55
2023/12/31 03:11:13;;;;;;;4.27;2.30;;;;;;;5.77;89.03;95693.13;5132246;27;20521;-56
2023/12/31 03:13:42;;;;;;;3.90;3.60;;;;;;;5.90;87.77;95707.91;5134021;27;20919;-55
2023/12/31 03:16:11;;;;;;;4.23;2.80;;;;;;;5.91;87.66;95699.81;5133457;27;20442;-57
2023/12/31 03:18:41;;;;;;;11.40;3.30;;;;;;;5.87;88.28;95698.66;5133472;27;20438;-56
2023/12/31 03:21:15;;;;;;;4.30;2.07;;;;;;;5.85;89.05;95702.53;5133754;27;20430;-56
2023/12/31 03:23:43;;;;;;;3.50;3.33;;;;;;;5.74;88.91;95699.66;5133769;27;20456;-57
2023/12/31 03:26:12;;;;;;;4.10;3.80;;;;;;;5.75;89.81;95722.31;5132833;27;20496;-56
2023/12/31 03:28:41;;;;;;;3.53;2.80;;;;;;;5.86;89.49;95722.56;5133553;27;20445;-57
2023/12/31 03:31:10;;;;;;;4.23;4.03;;;;;;;5.87;88.36;95721.56;5132937;27;20487;-57
2023/12/31 03:33:41;;;;;;;3.43;3.00;;;;;;;5.91;88.58;95720.06;5133263;27;20966;-56
2023/12/31 03:36:09;;;;;;;3.27;3.13;;;;;;;5.88;88.21;95721.31;5133016;27;20437;-57
2023/12/31 03:38:38;;;;;;;3.80;3.50;;;;;;;5.73;87.90;95719.13;5133782;27;20887;-56
2023/12/31 03:41:06;;;;;;;3.67;3.37;;;;;;;5.70;88.99;95721.38;5106082;27;20451;-56
2023/12/31 03:43:35;;;;;;;7.63;7.33;;;;;;;5.66;89.64;95726.31;5132935;27;20438;-56
2023/12/31 03:46:04;;;;;;;9.20;3.47;;;;;;;5.68;89.99;95731.34;5133113;27;20474;-55
2023/12/31 03:48:32;;;;;;;4.00;3.70;;;;;;;5.69;89.22;95736.38;5132108;27;20439;-55
2023/12/31 03:51:03;;;;;;;9.40;3.40;;;;;;;5.75;89.25;95748.59;5132711;27;20498;-55
2023/12/31 03:53:32;;;;;;;6.03;5.33;;;;;;;5.79;87.67;95739.22;5132741;27;20450;-55
2023/12/31 03:56:01;;;;;;;3.07;2.03;;;;;;;5.60;88.95;95735.13;5133062;27;20491;-56
2023/12/31 03:58:30;;;;;;;13.50;5.17;;;;;;;5.53;91.09;95741.50;5132917;27;20438;-56
2023/12/31 04:00:59;;;;;;;3.70;2.60;;;;;;;5.72;89.51;95748.25;5133052;27;20446;-55
2023/12/31 04:03:27;;;;;;;6.00;1.93;;;;;;;5.70;89.85;95747.69;5132199;27;21014;-56
2023/12/31 04:05:56;;;;;;;7.87;3.00;;;;;;;5.79;89.10;95748.97;5132970;27;20466;-56
2023/12/31 04:08:26;;;;;;;3.20;2.37;;;;;;;5.71;89.41;95750.09;5132609;27;20437;-56
2023/12/31 04:10:55;;;;;;;2.50;2.40;;;;;;;5.53;91.01;95738.88;5132568;27;20442;-57
2023/12/31 04:13:24;;;;;;;4.20;3.57;;;;;;;5.37;94.82;95747.41;5132201;27;20430;-56
2023/12/31 04:15:53;;;;;;;9.27;2.87;;;;;;;5.56;93.96;95746.31;5131858;27;20449;-55
2023/12/31 04:18:21;;;;;;;4.80;4.50;;;;;;;5.58;93.27;95736.38;5106079;27;20814;-56
2023/12/31 04:20:50;;;;;;;4.27;3.97;;;;;;;5.70;92.47;95739.78;5131638;27;20938;-55
2023/12/31 04:23:19;;;;;;;2.13;2.03;;;;;;;5.73;91.94;95740.16;5132121;27;20957;-56
2023/12/31 04:25:49;;;;;;;3.60;3.20;;;;;;;5.44;95.59;95738.41;5131993;27;20488;-55
2023/12/31 04:28:17;;;;;;;2.13;2.03;;;;;;;5.50;96.49;95731.44;5132209;27;20589;-56
2023/12/31 04:30:46;;;;;;;3.37;3.17;;;;;;;5.52;94.45;95745.16;5131953;27;20471;-55
2023/12/31 04:33:15;;;;;;;3.97;3.47;;;;;;;5.04;100.00;95756.59;5132542;27;20982;-56
2023/12/31 04:35:44;;;;;;;6.47;3.83;;;;;;;4.79;100.00;95763.81;5118570;28;20438;-55
2023/12/31 04:38:19;;;;;;;3.60;3.17;;;;;;;5.19;100.00;95771.94;5132746;27;20869;-56
2023/12/31 04:40:49;;;;;;;18.53;3.80;;;;;;;5.50;100.00;95747.22;5132037;27;20427;-56
2023/12/31 04:43:17;;;;;;;2.70;2.60;;;;;;;5.79;96.13;95762.13;5132234;27;20542;-56
2023/12/31 04:45:46;;;;;;;1.77;1.67;;;;;;;5.67;96.23;95777.06;5132028;28;20474;-56
2023/12/31 04:48:15;;;;;;;1.53;1.43;;;;;;;5.57;95.50;95766.31;5131994;28;20487;-57
2023/12/31 04:50:43;;;;;;;8.67;4.03;;;;;;;5.71;96.19;95780.84;5131037;27;20525;-56
2023/12/31 04:53:12;;;;;;;2.30;1.60;;;;;;;5.97;93.17;95785.69;5132455;27;20443;-57
2023/12/31 04:55:41;;;;;;;3.33;2.30;;;;;;;6.14;89.93;95773.47;5105456;28;20819;-56
2023/12/31 04:58:11;;;;;;;3.07;2.13;;;;;;;6.08;89.37;95771.75;5132385;27;20435;-56
2023/12/31 05:00:41;;;;;;;1.53;1.43;;;;;;;5.82;89.40;95731.94;5132318;28;20813;-56
2023/12/31 05:03:10;;;;;;;2.30;1.40;;;;;;;6.14;88.91;95789.25;5131475;28;20446;-56
2023/12/31 05:05:39;;;;;;;2.33;2.13;;;;;;;6.10;88.24;95782.84;5132122;28;20961;-56
2023/12/31 05:08:08;;;;;;;5.83;3.30;;;;;;;5.74;89.73;95789.06;5131584;28;20943;-57
2023/12/31 05:10:38;;;;;;;4.27;3.20;;;;;;;5.37;93.38;95798.16;5132017;28;20957;-57
2023/12/31 05:13:06;;;;;;;2.43;1.50;;;;;;;5.19;95.02;95803.47;5130897;27;20918;-56
2023/12/31 05:15:36;;;;;;;3.33;3.07;;;;;;;5.28;93.90;95803.97;5131545;28;20483;-56
2023/12/31 05:18:05;;;;;;;5.60;2.90;;;;;;;5.27;92.55;95799.72;5131672;27;20438;-56
2023/12/31 05:20:34;;;;;;;2.40;2.20;;;;;;;5.59;88.86;95808.97;5132162;28;20939;-57
2023/12/31 05:23:03;;;;;;;7.67;3.00;;;;;;;5.54;88.40;95809.63;5131974;27;20445;-56
2023/12/31 05:25:32;;;;;;;18.93;3.23;;;;;;;5.48;88.69;95804.47;5131711;28;20529;-55
2023/12/31 05:28:00;;;;;;;5.43;2.63;;;;;;;5.41;88.30;95795.91;5131002;28;20434;-55
2023/12/31 05:30:29;;;;;;;4.43;2.47;;;;;;;5.52;88.68;95810.88;5131253;28;20492;-55
2023/12/31 05:32:59;;;;;;;4.63;2.30;;;;;;;5.39;88.65;95811.09;5106142;27;20442;-56
2023/12/31 05:35:29;;;;;;;7.50;1.77;;;;;;;5.32;90.65;95810.38;5135458;27;20966;-57
2023/12/31 05:37:57;;;;;;;7.10;2.00;;;;;;;5.03;92.85;95804.88;5136066;27;20469;-55
2023/12/31 05:40:26;;;;;;;4.83;4.43;;;;;;;5.13;94.47;95802.53;5135126;27;20438;-56
2023/12/31 05:42:54;;;;;;;20.07;5.67;;;;;;;5.19;93.52;95794.81;5135863;27;20438;-56
2023/12/31 05:45:23;;;;;;;8.07;4.13;;;;;;;5.29;93.34;95795.84;5135719;27;20503;-56
2023/12/31 05:47:52;;;;;;;2.37;2.17;;;;;;;5.47;92.09;95813.38;5135668;27;20466;-56
2023/12/31 05:50:22;;;;;;;3.03;2.83;;;;;;;5.51;92.48;95806.66;5135425;27;20514;-56
2023/12/31 05:52:51;;;;;;;13.47;4.40;;;;;;;5.51;91.48;95804.84;5135042;27;20466;-56
2023/12/31 05:55:19;;;;;;;4.23;3.90;;;;;;;5.34;92.19;95787.31;5135804;27;20430;-55
2023/12/31 05:57:48;;;;;;;21.77;3.27;;;;;;;5.28;95.03;95809.22;5135292;27;20446;-56
2023/12/31 06:00:17;;;;;;;9.07;7.20;;;;;;;5.44;94.96;95808.59;5135068;27;20459;-56
2023/12/31 06:02:46;;;;;;;2.97;2.70;;;;;;;5.50;95.67;95813.75;5135304;27;20457;-56
2023/12/31 06:05:14;;;;;;;14.87;5.13;;;;;;;5.14;98.03;95806.78;5134818;27;20442;-56
2023/12/31 06:07:44;;;;;;;5.50;4.50;;;;;;;5.44;98.28;95800.72;5134991;27;20478;-56
2023/12/31 06:10:13;;;;;;;14.80;4.10;;;;;;;5.51;97.30;95798.78;5135293;27;20442;-56
2023/12/31 06:12:41;;;;;;;4.07;3.73;;;;;;;5.68;96.97;95800.53;5134682;27;20434;-56
2023/12/31 06:15:11;;;;;;;8.10;5.33;;;;;;;5.74;94.67;95802.22;5135210;27;20477;-57
2023/12/31 06:17:40;;;;;;;13.00;5.47;;;;;;;5.72;96.14;95798.22;5134549;27;20529;-58
2023/12/31 06:20:10;;;;;;;9.30;3.67;;;;;;;5.92;94.56;95806.63;5134726;27;20434;-57
2023/12/31 06:22:39;;;;;;;8.10;6.53;;;;;;;5.74;96.50;95809.34;5134654;27;20442;-56
2023/12/31 06:25:10;;;;;;;10.47;6.10;;;;;;;5.77;97.54;95799.16;5128465;27;20803;-56
2023/12/31 06:27:39;;;;;;;7.50;5.10;;;;;;;6.00;94.82;95801.03;5119636;27;20971;-56
2023/12/31 06:30:09;;;;;;;7.37;5.00;;;;;;;6.15;93.37;95798.72;5134431;27;20438;-57
2023/12/31 06:32:37;;;;;;;8.13;4.70;;;;;;;6.19;92.44;95797.25;5133764;27;21451;-57
2023/12/31 06:35:09;;;;;;;7.10;5.27;;;;;;;6.25;92.61;95787.63;5134584;27;20876;-57
2023/12/31 06:37:37;;;;;;;6.30;4.20;;;;;;;6.34;91.80;95794.97;5134364;27;20446;-57
2023/12/31 06:40:08;;;;;;;3.90;3.50;;;;;;;6.38;92.16;95795.28;5134971;27;20430;-56
2023/12/31 06:42:38;;;;;;;3.33;2.90;;;;;;;6.36;91.54;95792.91;5134100;27;20518;-57
2023/12/31 06:45:08;;;;;;;6.07;5.47;;;;;;;6.44;91.46;95804.09;5134062;27;20834;-57
2023/12/31 06:47:36;;;;;;;6.17;5.47;;;;;;;6.38;91.37;95790.81;5134075;27;20527;-57
2023/12/31 06:50:06;;;;;;;16.17;6.63;;;;;;;6.51;90.26;95816.09;5133637;27;20445;-57
2023/12/31 06:52:35;;;;;;;7.73;5.27;;;;;;;6.51;90.46;95791.59;5134189;27;20470;-56
2023/12/31 06:55:04;;;;;;;8.27;4.47;;;;;;;6.60;90.73;95798.13;5133908;27;21184;-56
2023/12/31 06:57:32;;;;;;;5.90;5.03;;;;;;;6.52;91.05;95798.47;5133861;27;20495;-57
2023/12/31 07:00:02;;;;;;;6.20;5.60;;;;;;;6.58;90.67;95798.34;5134107;27;20544;-57
2023/12/31 07:02:31;;;;;;;11.37;3.40;;;;;;;6.68;89.54;95795.13;5134405;27;20441;-57
2023/12/31 07:05:00;;;;;;;11.10;5.07;;;;;;;6.15;89.61;95746.09;5133749;27;20431;-57
2023/12/31 07:07:29;;;;;;;6.93;6.33;;;;;;;6.52;90.28;95811.66;5134047;27;20466;-57
2023/12/31 07:09:57;;;;;;;7.90;5.20;;;;;;;6.26;88.66;95812.94;5133603;27;20943;-57
2023/12/31 07:12:26;;;;;;;7.47;5.30;;;;;;;5.65;90.68;95814.13;5134439;27;20434;-57
2023/12/31 07:14:54;;;;;;;5.33;4.90;;;;;;;5.65;91.86;95789.66;5127700;27;20439;-57
2023/12/31 07:17:24;;;;;;;4.80;3.07;;;;;;;5.69;91.72;95807.38;5126298;27;20849;-57
2023/12/31 07:19:59;;;;;;;5.10;4.60;;;;;;;5.77;91.50;95811.50;5133630;27;20438;-58
2023/12/31 07:22:28;;;;;;;4.60;4.10;;;;;;;5.56;90.77;95765.53;5133233;27;20506;-55
2023/12/31 07:24:57;;;;;;;3.47;3.30;;;;;;;6.05;89.75;95801.13;5132782;27;20442;-57
2023/12/31 07:27:26;;;;;;;4.00;3.80;;;;;;;6.38;87.23;95806.63;5133823;27;20573;-58
2023/12/31 07:29:54;;;;;;;4.10;2.93;;;;;;;6.49;86.02;95810.28;5132994;27;20442;-58
2023/12/31 07:32:24;;;;;;;8.70;2.60;;;;;;;6.67;83.87;95807.50;5133234;27;20457;-57
2023/12/31 07:34:53;;;;;;;4.50;4.17;;;;;;;6.58;83.76;95806.25;5133022;27;20466;-57
2023/12/31 07:37:21;;;;;;;7.10;3.97;;;;;;;6.44;84.70;95807.53;5133464;27;20435;-57
2023/12/31 07:39:50;;;;;;;5.00;4.70;;;;;;;6.38;84.17;95813.72;5133241;27;21010;-58
2023/12/31 07:42:19;;;;;;;2.83;2.63;;;;;;;6.32;84.48;95815.44;5119310;27;20469;-57
2023/12/31 07:44:47;;;;;;;16.23;4.37;;;;;;;6.33;85.01;95822.31;5133217;27;20438;-57
2023/12/31 07:47:16;;;;;;;5.07;4.17;;;;;;;5.81;88.09;95825.81;5133051;27;20466;-57
2023/12/31 07:49:46;;;;;;;4.20;3.33;;;;;;;5.65;91.13;95834.34;5132197;27;20534;-56
2023/12/31 07:52:15;;;;;;;4.30;3.90;;;;;;;5.74;91.68;95835.63;5129201;27;21059;-57
2023/12/31 07:54:44;;;;;;;4.97;4.27;;;;;;;5.59;91.41;95801.09;5130805;27;20438;-57
2023/12/31 07:57:12;;;;;;;4.00;3.80;;;;;;;5.95;90.09;95836.94;5130646;27;20427;-57
2023/12/31 07:59:41;;;;;;;7.73;5.63;;;;;;;5.70;90.15;95797.66;5131403;27;20486;-57
2023/12/31 08:02:10;;;;;;;6.37;5.80;;;;;;;6.08;89.47;95840.16;5104395;27;20442;-57
2023/12/31 08:04:38;;;;;;;7.33;6.63;;;;;;;6.23;88.41;95845.78;5131070;27;20434;-56
2023/12/31 08:07:08;;;;;;;7.50;3.03;;;;;;;6.22;88.45;95838.91;5131384;27;20526;-58
2023/12/31 08:09:37;;;;;;;1.33;1.30;;;;;;;6.51;87.38;95844.25;5130992;27;20430;-58
2023/12/31 08:12:06;;;;;;;2.93;2.63;;;;;;;6.55;87.28;95848.06;5131229;27;20434;-58
2023/12/31 08:14:35;;;;;;;3.50;3.30;;;;;;;6.32;87.89;95810.16;5131011;27;20442;-57
2023/12/31 08:17:04;;;;;;;2.57;2.43;;;;;;;6.62;88.07;95848.72;5131263;27;20470;-56
2023/12/31 08:19:32;;;;;;;4.43;4.27;;;;;;;6.15;88.60;95797.94;5130433;27;20444;-58
2023/12/31 08:22:01;;;;;;;2.60;2.00;;;;;;;6.72;88.56;95857.66;5132185;27;20933;-58
2023/12/31 08:24:31;;;;;;;4.80;2.80;;;;;;;6.75;87.46;95845.84;5132243;27;20942;-58
2023/12/31 08:27:00;;;;;;;5.87;5.17;;;;;;;6.75;85.66;95814.25;5131995;27;20491;-58
2023/12/31 08:29:28;;;;;;;3.07;2.97;;;;;;;7.21;85.69;95856.25;5131999;27;20885;-57
2023/12/31 08:31:57;;;;;;;9.23;3.80;;;;;;;7.32;83.76;95855.41;5132684;27;20439;-58
2023/12/31 08:34:26;;;;;;;2.00;1.80;;;;;;;7.28;82.96;95820.03;5132860;27;20494;-59
2023/12/31 08:36:54;;;;;;;2.70;2.50;;;;;;;7.53;82.01;95862.69;5132133;27;20533;-59
2023/12/31 08:39:24;;;;;;;3.70;3.50;;;;;;;7.44;80.79;95827.16;5131453;27;20792;-58
2023/12/31 08:41:54;;;;;;;6.40;3.00;;;;;;;7.68;80.73;95864.78;5132167;27;20488;-58
2023/12/31 08:44:22;;;;;;;4.67;4.37;;;;;;;7.48;80.34;95806.38;5132533;27;20443;-58
2023/12/31 08:46:51;;;;;;;6.63;2.37;;;;;;;8.02;79.92;95868.25;5132101;27;20430;-57
2023/12/31 08:49:20;;;;;;;4.27;3.87;;;;;;;8.18;79.36;95870.09;5132289;28;20474;-58
2023/12/31 08:51:50;;;;;;;3.33;3.03;;;;;;;8.21;79.58;95865.13;5132276;28;20497;-57
2023/12/31 08:54:18;;;;;;;2.80;2.43;;;;;;;8.39;78.94;95869.41;5132339;28;20582;-57
2023/12/31 08:56:48;;;;;;;1.70;1.60;;;;;;;8.71;76.97;95843.16;5132021;28;20462;-57
2023/12/31 08:59:19;;;;;;;2.60;2.50;;;;;;;8.97;75.19;95868.88;5132473;28;20510;-57
2023/12/31 09:01:48;;;;;;;19.43;6.17;;;;;;;9.21;73.82;95858.88;5132248;27;20430;-57
2023/12/31 09:04:17;;;;;;;3.47;3.27;;;;;;;9.55;74.19;95855.00;5132263;27;20442;-57
2023/12/31 09:06:46;;;;;;;5.13;4.50;;;;;;;9.33;72.86;95830.44;5132313;27;20985;-58
2023/12/31 09:09:15;;;;;;;4.30;4.00;;;;;;;9.90;72.31;95805.03;5136073;27;20561;-59
2023/12/31 09:11:43;;;;;;;4.90;4.20;;;;;;;10.65;70.47;95841.88;5136526;27;20458;-57
2023/12/31 09:14:12;;;;;;;9.70;4.87;;;;;;;11.50;66.60;95808.78;5135759;27;20957;-56
2023/12/31 09:16:42;;;;;;;4.13;3.97;;;;;;;12.37;63.01;95815.78;5136002;27;20987;-58
2023/12/31 09:19:11;;;;;;;2.50;2.30;;;;;;;12.65;61.01;95828.47;5135552;27;20469;-58
2023/12/31 09:21:39;;;;;;;5.43;4.00;;;;;;;13.66;58.23;95820.91;5135949;27;20441;-57
2023/12/31 09:24:08;;;;;;;6.33;3.70;;;;;;;14.38;56.05;95806.00;5135730;27;20438;-57
2023/12/31 09:26:37;;;;;;;5.20;5.00;;;;;;;14.62;55.61;95799.63;5135641;27;20891;-55
2023/12/31 09:29:05;;;;;;;7.93;5.83;;;;;;;14.63;54.45;95792.41;5122348;27;20596;-56
2023/12/31 09:31:34;;;;;;;5.10;4.63;;;;;;;14.28;54.02;95705.53;5135696;27;20969;-56
2023/12/31 09:34:04;;;;;;;11.13;6.83;;;;;;;15.46;52.65;95778.63;5134937;27;20514;-56
2023/12/31 09:36:33;;;;;;;13.47;5.70;;;;;;;16.08;52.30;95767.53;5135791;27;20844;-56
2023/12/31 09:39:02;;;;;;;9.03;6.47;;;;;;;15.94;52.23;95768.59;5134845;27;20437;-56
2023/12/31 09:41:32;;;;;;;12.77;4.63;;;;;;;15.86;50.79;95760.13;5135428;27;20439;-56
2023/12/31 09:44:03;;;;;;;5.00;3.67;;;;;;;15.22;50.17;95765.31;5134958;27;20483;-56
2023/12/31 09:46:36;;;;;;;7.20;4.80;;;;;;;15.46;50.38;95763.41;5135333;27;20430;-57
2023/12/31 09:49:07;;;;;;;5.03;2.40;;;;;;;15.93;49.76;95757.09;5133640;27;20473;-57
2023/12/31 09:51:37;;;;;;;5.30;3.30;;;;;;;15.86;50.74;95754.00;5135030;27;20476;-57
2023/12/31 09:54:07;;;;;;;7.53;4.77;;;;;;;16.41;48.35;95737.00;5108463;27;20445;-57
2023/12/31 09:56:36;;;;;;;8.00;5.87;;;;;;;15.78;50.09;95736.75;5134942;27;20466;-58
2023/12/31 09:59:04;;;;;;;5.17;4.27;;;;;;;15.07;50.28;95720.91;5135783;27;20507;-57
2023/12/31 10:01:37;;;;;;;4.67;3.30;;;;;;;15.13;50.63;95678.91;5134996;27;20923;-58
2023/12/31 10:04:08;;;;;;;3.60;3.30;;;;;;;15.72;50.22;95727.22;5134807;27;20430;-57
2023/12/31 10:06:41;;;;;;;6.97;4.33;;;;;;;15.42;50.27;95716.16;5134650;27;21012;-58
2023/12/31 10:09:11;;;;;;;10.77;4.07;;;;;;;15.73;50.21;95720.00;5134340;27;20466;-59
2023/12/31 10:11:42;;;;;;;3.23;2.80;;;;;;;15.04;50.15;95685.97;5134725;27;20930;-57
2023/12/31 10:14:11;;;;;;;4.33;3.93;;;;;;;15.02;50.16;95712.19;5134529;27;20430;-57
2023/12/31 10:16:43;;;;;;;3.07;2.87;;;;;;;14.68;50.86;95687.50;5134551;27;20861;-57
2023/12/31 10:19:14;;;;;;;3.10;2.90;;;;;;;14.25;51.31;95668.78;5134321;27;20449;-57
2023/12/31 10:21:44;;;;;;;16.83;1.93;;;;;;;14.91;51.39;95706.16;5134967;27;20521;-57
2023/12/31 10:24:12;;;;;;;2.90;1.80;;;;;;;15.13;50.92;95701.06;5134695;27;20434;-57
2023/12/31 10:26:41;;;;;;;3.17;2.97;;;;;;;15.01;52.26;95692.69;5135147;27;20437;-57
2023/12/31 10:29:11;;;;;;;2.53;1.40;;;;;;;15.25;51.49;95676.63;5134228;27;20537;-57
2023/12/31 10:31:39;;;;;;;2.63;2.53;;;;;;;15.50;49.56;95678.13;5134480;27;20442;-56
2023/12/31 10:34:16;;;;;;;8.60;3.70;;;;;;;15.26;50.13;95686.19;5134267;27;20426;-56
2023/12/31 10:36:47;;;;;;;2.03;1.93;;;;;;;14.04;50.01;95523.47;5134081;27;20513;-56
2023/12/31 10:39:29;;;;;;;2.80;2.60;;;;;;;15.57;49.97;95667.88;5134016;27;20431;-57
2023/12/31 10:41:59;;;;;;;4.77;4.30;;;;;;;15.75;49.08;95675.06;5133630;27;20430;-57
2023/12/31 10:44:28;;;;;;;11.23;2.87;;;;;;;15.92;49.23;95661.94;5133875;27;21011;-57
2023/12/31 10:46:59;;;;;;;2.07;1.93;;;;;;;16.33;48.66;95675.34;5133080;27;20517;-57
2023/12/31 10:49:32;;;;;;;2.97;1.90;;;;;;;16.08;47.55;95675.81;5134179;27;20473;-58
2023/12/31 10:52:02;;;;;;;4.00;2.97;;;;;;;16.37;48.17;95669.13;5133891;27;20454;-59
2023/12/31 10:54:42;;;;;;;3.57;2.17;;;;;;;17.06;48.09;95662.66;5134375;27;20851;-60
2023/12/31 10:57:11;;;;;;;7.50;2.20;;;;;;;17.13;46.58;95646.16;5133919;27;20431;-60
2023/12/31 10:59:42;;;;;;;8.93;2.40;;;;;;;16.47;47.94;95636.81;5134119;27;20435;-60
2023/12/31 11:02:16;;;;;;;1.10;1.10;;;;;;;17.93;45.94;95651.50;5107869;27;20453;-60
2023/12/31 11:04:47;;;;;;;10.67;2.50;;;;;;;18.14;44.65;95641.81;5133832;27;20434;-60
2023/12/31 11:07:17;;;;;;;2.73;1.47;;;;;;;18.54;42.92;95631.94;5134575;27;20430;-62
2023/12/31 11:09:47;;;;;;;2.70;2.10;;;;;;;19.25;42.65;95625.22;5132969;27;20790;-61
2023/12/31 11:12:16;;;;;;;5.40;1.33;;;;;;;19.86;41.92;95617.94;5133668;27;21144;-63
2023/12/31 11:14:51;;;;;;;3.43;3.23;;;;;;;20.60;40.94;95615.63;5133674;27;20481;-61
2023/12/31 11:17:47;;;;;;;1.73;1.63;;;;;;;20.22;40.71;95602.94;5133240;27;20503;-60
2023/12/31 11:20:37;;;;;;;10.23;3.00;;;;;;;20.39;39.85;95596.69;5133372;27;20435;-59
2023/12/31 11:23:17;;;;;;;1.53;1.43;;;;;;;20.53;39.71;95577.63;5132755;27;20427;-59
2023/12/31 11:25:47;;;;;;;5.90;1.50;;;;;;;19.67;40.36;95598.66;5131891;27;20938;-57
2023/12/31 11:28:17;;;;;;;1.00;0.97;;;;;;;20.64;39.35;95606.59;5120679;27;20869;-57
2023/12/31 11:30:47;;;;;;;2.30;1.70;;;;;;;19.75;39.35;95595.97;5131624;27;20478;-58
2023/12/31 11:33:21;;;;;;;1.17;1.17;;;;;;;19.92;40.27;95590.53;5133221;27;20942;-57
2023/12/31 11:35:53;;;;;;;0.97;0.90;;;;;;;20.17;38.79;95586.16;5132421;27;20484;-56
2023/12/31 11:38:21;;;;;;;2.00;0.90;;;;;;;20.83;38.40;95580.00;5133328;27;20878;-57
2023/12/31 11:40:50;;;;;;;0.93;0.93;;;;;;;20.66;37.32;95579.31;5132605;27;20431;-57
2023/12/31 11:43:21;;;;;;;8.13;1.10;;;;;;;20.69;38.41;95573.28;5133395;27;20438;-58
2023/12/31 11:45:51;;;;;;;0.83;0.83;;;;;;;18.96;39.55;95569.44;5132984;27;20434;-57
2023/12/31 11:48:24;;;;;;;1.33;1.20;;;;;;;19.24;39.50;95551.09;5133211;27;20452;-57
2023/12/31 11:50:58;;;;;;;0.60;0.60;;;;;;;20.47;37.49;95571.66;5106925;27;20569;-57